Time;durP1;ratioP1;P1;durP2;ratioP2;P2;SDS_P1;SDS_P2;PMS_P1;PMS_P2;Temp;Humidity;BMP_temperature;BMP_pressure;BME280_temperature;BME280_humidity;BME280_pressure;Samples;Min_cycle;Max_cycle;Signal;HPM_P1;HPM_P2
2023/01/15 00:01:22;;;;;;;7.17;0.67;;;7.20;81.20;;;;;;4992376;28;20133;-82
2023/01/15 00:03:50;;;;;;;6.93;0.80;;;7.20;81.10;;;;;;5008769;28;20707;-81
2023/01/15 00:06:21;;;;;;;12.55;1.02;;;7.20;81.50;;;;;;5021620;28;20065;-80
2023/01/15 00:08:49;;;;;;;8.50;0.80;;;7.20;81.60;;;;;;4983726;28;20046;-80
2023/01/15 00:11:17;;;;;;;9.30;1.08;;;7.20;81.60;;;;;;5008445;28;20093;-80
2023/01/15 00:13:45;;;;;;;8.70;0.97;;;7.20;81.40;;;;;;4994697;28;20234;-81
2023/01/15 00:16:15;;;;;;;8.02;1.00;;;7.20;81.50;;;;;;5007554;28;20385;-82
2023/01/15 00:18:42;;;;;;;9.18;1.27;;;7.20;81.30;;;;;;5003362;28;20142;-81
2023/01/15 00:21:11;;;;;;;7.88;0.80;;;7.20;81.30;;;;;;5009971;28;20532;-81
2023/01/15 00:29:14;;;;;;;7.70;1.33;;;7.20;81.10;;;;;;4988621;28;20288;-81
2023/01/15 00:31:51;;;;;;;5.75;0.68;;;7.20;80.80;;;;;;5005933;28;20062;-82
2023/01/15 00:34:18;;;;;;;8.52;1.08;;;7.20;80.70;;;;;;5069971;22;20559;-82
2023/01/15 00:36:46;;;;;;;6.68;0.80;;;7.20;80.70;;;;;;5061026;28;20128;-81
2023/01/15 00:39:13;;;;;;;9.03;0.70;;;7.20;80.70;;;;;;5059951;28;20239;-81
2023/01/15 00:41:40;;;;;;;7.20;0.90;;;7.20;80.80;;;;;;5069643;28;20298;-83
2023/01/15 00:44:08;;;;;;;7.20;0.40;;;7.20;80.90;;;;;;5085836;28;20548;-82
2023/01/15 00:46:36;;;;;;;8.20;0.88;;;7.20;80.70;;;;;;5088180;28;20110;-82
2023/01/15 00:49:04;;;;;;;9.43;1.40;;;7.20;80.80;;;;;;5078421;28;20875;-82
2023/01/15 00:51:32;;;;;;;9.50;0.90;;;7.20;80.80;;;;;;5069409;28;20045;-82
2023/01/15 00:53:59;;;;;;;10.07;1.42;;;7.20;80.70;;;;;;5079008;28;20310;-82
2023/01/15 00:56:26;;;;;;;6.68;0.90;;;7.20;80.50;;;;;;5068111;28;20068;-83
2023/01/15 00:58:54;;;;;;;11.23;1.40;;;7.20;80.40;;;;;;5071023;28;20049;-83
2023/01/15 01:01:21;;;;;;;7.55;0.88;;;7.20;80.30;;;;;;5088020;28;20075;-81
2023/01/15 01:03:51;;;;;;;7.33;0.80;;;7.20;80.30;;;;;;5070713;28;21002;-82
2023/01/15 01:06:21;;;;;;;8.93;0.80;;;7.20;80.20;;;;;;5071456;28;20725;-82
2023/01/15 01:08:48;;;;;;;8.63;0.93;;;7.20;80.00;;;;;;5082672;28;20052;-81
2023/01/15 01:11:18;;;;;;;11.15;1.02;;;7.20;79.80;;;;;;5057529;28;20045;-82
2023/01/15 01:13:46;;;;;;;9.18;0.77;;;7.20;79.70;;;;;;5085154;28;20045;-82
2023/01/15 01:16:34;;;;;;;10.63;1.03;;;7.20;79.50;;;;;;5087486;28;20052;-82
2023/01/15 01:19:03;;;;;;;8.77;0.73;;;7.20;79.50;;;;;;5053273;28;20337;-81
2023/01/15 01:21:32;;;;;;;10.30;1.13;;;7.20;79.50;;;;;;5072999;28;20132;-81
2023/01/15 01:24:02;;;;;;;9.10;0.70;;;7.20;79.40;;;;;;5080262;28;20451;-82
2023/01/15 01:26:30;;;;;;;8.57;0.82;;;7.20;79.70;;;;;;5086982;28;20569;-81
2023/01/15 01:28:58;;;;;;;7.47;1.00;;;7.20;79.80;;;;;;5066667;28;20080;-81
2023/01/15 01:31:25;;;;;;;7.57;0.88;;;7.20;79.50;;;;;;5078097;28;20252;-81
2023/01/15 01:33:54;;;;;;;10.40;0.85;;;7.20;79.50;;;;;;5075267;28;20522;-81
2023/01/15 01:36:27;;;;;;;9.02;1.17;;;7.20;79.60;;;;;;5070331;28;20183;-82
2023/01/15 01:38:56;;;;;;;9.25;1.05;;;7.20;79.60;;;;;;5069631;28;20556;-83
2023/01/15 01:41:27;;;;;;;6.57;0.93;;;7.20;79.40;;;;;;5070382;28;20593;-82
2023/01/15 01:43:58;;;;;;;12.00;1.27;;;7.20;79.50;;;;;;5086065;28;20819;-81
2023/01/15 01:46:26;;;;;;;12.75;1.02;;;7.20;79.30;;;;;;5069538;28;20229;-83
2023/01/15 01:48:57;;;;;;;4.93;0.50;;;7.20;79.20;;;;;;5085113;28;20044;-82
2023/01/15 01:51:27;;;;;;;7.18;0.85;;;7.10;79.20;;;;;;5084289;28;20098;-81
2023/01/15 01:53:56;;;;;;;10.63;1.20;;;7.10;79.30;;;;;;5061133;28;20052;-82
2023/01/15 01:56:24;;;;;;;9.93;1.00;;;7.10;79.20;;;;;;5073060;28;20310;-82
2023/01/15 01:58:54;;;;;;;11.90;1.00;;;7.10;79.20;;;;;;5083903;28;20052;-81
2023/01/15 02:01:22;;;;;;;9.15;1.25;;;7.10;78.80;;;;;;5081505;28;20045;-82
2023/01/15 02:03:50;;;;;;;9.70;1.10;;;7.10;78.80;;;;;;5074909;28;20055;-82
2023/01/15 02:06:17;;;;;;;13.27;1.03;;;7.10;79.00;;;;;;5081053;28;20107;-81
2023/01/15 02:08:44;;;;;;;7.75;0.63;;;7.10;79.00;;;;;;5058871;28;20295;-81
2023/01/15 02:11:17;;;;;;;8.88;1.38;;;7.10;79.00;;;;;;5056106;28;20049;-83
2023/01/15 02:13:57;;;;;;;6.90;0.80;;;7.10;79.10;;;;;;5078655;28;20594;-82
2023/01/15 02:16:57;;;;;;;5.80;0.80;;;7.10;79.10;;;;;;5054706;28;20154;-82
2023/01/15 02:19:40;;;;;;;8.53;0.90;;;7.10;79.00;;;;;;5022457;28;20054;-82
2023/01/15 02:22:18;;;;;;;9.68;1.05;;;7.10;78.80;;;;;;4994777;28;20390;-81
2023/01/15 02:24:57;;;;;;;8.48;0.98;;;7.00;78.80;;;;;;5046324;28;20049;-82
2023/01/15 02:27:26;;;;;;;9.90;1.33;;;7.10;78.50;;;;;;5044907;28;20127;-81
2023/01/15 02:29:59;;;;;;;8.98;1.02;;;7.00;78.50;;;;;;4995178;28;20393;-81
2023/01/15 02:32:34;;;;;;;12.17;1.40;;;7.00;78.70;;;;;;5032795;28;20053;-82
2023/01/15 02:35:06;;;;;;;7.22;0.88;;;7.00;78.70;;;;;;5045832;28;20352;-81
2023/01/15 02:37:39;;;;;;;6.97;0.85;;;7.00;78.70;;;;;;5025608;28;20160;-81
2023/01/15 02:40:10;;;;;;;10.93;1.55;;;7.00;78.60;;;;;;5030870;28;20052;-83
2023/01/15 02:42:40;;;;;;;6.32;1.10;;;7.00;78.70;;;;;;5028886;28;20943;-82
2023/01/15 02:45:10;;;;;;;9.03;1.20;;;7.00;78.60;;;;;;5029571;28;20076;-81
2023/01/15 02:47:41;;;;;;;6.85;0.93;;;7.00;78.50;;;;;;5048961;28;20260;-81
2023/01/15 02:50:14;;;;;;;9.10;1.00;;;7.00;78.20;;;;;;5025188;28;20132;-82
2023/01/15 02:52:45;;;;;;;8.20;0.85;;;7.00;78.30;;;;;;5046939;28;20050;-82
2023/01/15 02:55:18;;;;;;;9.02;1.20;;;7.00;78.20;;;;;;5049175;28;20056;-82
2023/01/15 02:57:50;;;;;;;8.97;1.00;;;7.00;78.30;;;;;;5044044;28;20054;-81
2023/01/15 03:00:20;;;;;;;8.43;1.20;;;7.00;78.20;;;;;;5016319;28;20307;-82
2023/01/15 03:02:53;;;;;;;9.13;1.30;;;7.00;78.30;;;;;;5016388;28;20049;-81
2023/01/15 03:05:24;;;;;;;7.53;0.90;;;7.00;78.40;;;;;;5032927;28;20616;-81
2023/01/15 03:07:56;;;;;;;9.43;1.42;;;7.00;78.50;;;;;;5031381;28;20049;-82
2023/01/15 03:10:34;;;;;;;11.23;1.13;;;7.00;78.50;;;;;;5012316;28;20502;-82
2023/01/15 03:13:06;;;;;;;9.40;1.20;;;7.00;78.40;;;;;;5015834;28;20249;-81
2023/01/15 03:18:42;;;;;;;9.52;1.05;;;7.00;78.10;;;;;;5029405;28;20053;-83
2023/01/15 03:21:13;;;;;;;7.80;0.82;;;7.00;78.10;;;;;;5029178;28;20057;-82
2023/01/15 03:23:46;;;;;;;6.83;1.10;;;7.00;77.90;;;;;;5029437;28;20049;-82
2023/01/15 03:26:13;;;;;;;8.50;0.90;;;7.00;77.90;;;;;;5015428;28;20312;-82
2023/01/15 03:28:46;;;;;;;8.80;1.17;;;7.00;78.00;;;;;;5015151;28;20132;-81
2023/01/15 03:31:14;;;;;;;12.63;1.60;;;7.00;78.00;;;;;;5014911;28;20041;-82
2023/01/15 03:33:42;;;;;;;7.78;0.90;;;7.00;77.50;;;;;;5050674;28;20519;-82
2023/01/15 03:36:14;;;;;;;11.63;1.10;;;7.00;77.50;;;;;;5013592;28;20069;-81
2023/01/15 03:38:49;;;;;;;10.30;1.15;;;7.00;77.60;;;;;;5013925;28;20304;-82
2023/01/15 03:41:32;;;;;;;13.23;1.20;;;7.00;77.30;;;;;;5037711;28;20050;-82
2023/01/15 03:44:12;;;;;;;7.25;1.02;;;7.00;77.30;;;;;;5015530;28;20050;-82
2023/01/15 03:46:57;;;;;;;14.40;1.77;;;7.00;77.20;;;;;;5028749;28;20744;-81
2023/01/15 03:49:37;;;;;;;12.70;1.40;;;7.00;76.90;;;;;;5045605;28;20084;-82
2023/01/15 03:52:18;;;;;;;9.18;1.00;;;7.00;76.80;;;;;;5030718;28;20348;-81
2023/01/15 03:54:52;;;;;;;10.60;1.02;;;7.00;76.60;;;;;;5014994;28;20995;-82
2023/01/15 03:57:28;;;;;;;10.60;1.10;;;7.00;76.40;;;;;;5010179;28;20347;-81
2023/01/15 04:00:01;;;;;;;8.15;0.90;;;6.90;76.60;;;;;;5028223;28;20641;-82
2023/01/15 04:02:31;;;;;;;8.97;1.27;;;7.00;76.10;;;;;;5029639;28;20060;-82
2023/01/15 04:05:00;;;;;;;10.93;1.10;;;6.90;76.30;;;;;;5030871;28;20331;-82
2023/01/15 04:07:30;;;;;;;8.30;1.23;;;6.90;76.40;;;;;;5048282;28;20577;-81
2023/01/15 04:09:58;;;;;;;9.05;0.70;;;6.90;76.20;;;;;;5031365;28;20053;-81
2023/01/15 04:12:26;;;;;;;8.18;1.10;;;6.90;76.40;;;;;;5033483;28;20056;-82
2023/01/15 04:14:57;;;;;;;10.03;1.13;;;6.90;76.40;;;;;;5013427;28;20058;-82
2023/01/15 04:17:25;;;;;;;7.38;1.23;;;6.90;76.50;;;;;;5011825;28;20312;-81
2023/01/15 04:19:52;;;;;;;11.65;1.05;;;6.90;76.50;;;;;;5028871;28;20057;-82
2023/01/15 04:22:19;;;;;;;10.05;1.10;;;6.90;76.10;;;;;;5031929;28;20095;-81
2023/01/15 04:24:47;;;;;;;9.93;1.40;;;6.90;76.30;;;;;;5029374;28;20124;-82
2023/01/15 04:27:14;;;;;;;9.40;1.10;;;6.80;76.20;;;;;;5023986;28;20054;-81
2023/01/15 04:29:41;;;;;;;10.68;1.20;;;6.80;76.30;;;;;;5016414;28;21139;-81
2023/01/15 04:32:09;;;;;;;7.18;0.60;;;6.80;76.40;;;;;;5034297;28;20136;-83
2023/01/15 04:34:36;;;;;;;9.85;1.20;;;6.80;76.50;;;;;;5031123;28;20069;-81
2023/01/15 04:37:04;;;;;;;10.63;1.23;;;6.80;76.40;;;;;;5028143;28;20629;-81
2023/01/15 04:39:31;;;;;;;11.00;1.60;;;6.80;76.60;;;;;;5042128;28;20081;-82
2023/01/15 04:44:44;;;;;;;12.75;1.65;;;6.80;76.70;;;;;;5031090;28;20838;-81
2023/01/15 04:47:12;;;;;;;8.57;0.90;;;6.80;76.60;;;;;;5031226;28;21185;-81
2023/01/15 04:49:39;;;;;;;11.18;1.40;;;6.80;76.80;;;;;;5024243;28;20050;-82
2023/01/15 04:52:07;;;;;;;9.20;1.07;;;6.80;76.80;;;;;;5026816;28;20115;-81
2023/01/15 04:54:34;;;;;;;11.32;1.55;;;6.80;76.70;;;;;;5031080;28;20814;-82
2023/01/15 04:57:01;;;;;;;11.15;1.60;;;6.80;76.70;;;;;;5029874;28;20089;-81
2023/01/15 04:59:28;;;;;;;12.30;1.42;;;6.80;76.60;;;;;;5020081;28;20056;-84
2023/01/15 05:01:55;;;;;;;13.38;1.33;;;6.80;75.90;;;;;;5022473;28;20092;-84
2023/01/15 05:04:24;;;;;;;8.50;1.03;;;6.80;76.10;;;;;;5026070;28;20077;-82
2023/01/15 05:06:52;;;;;;;8.57;1.10;;;6.80;76.10;;;;;;5045524;28;20277;-83
2023/01/15 05:09:19;;;;;;;7.78;1.08;;;6.70;76.20;;;;;;5030011;28;20064;-81
2023/01/15 05:11:46;;;;;;;9.27;1.10;;;6.70;76.20;;;;;;5043385;28;21076;-82
2023/01/15 05:14:13;;;;;;;7.57;1.05;;;6.70;76.40;;;;;;5020890;28;20526;-83
2023/01/15 05:16:40;;;;;;;9.63;1.07;;;6.70;76.40;;;;;;5030648;28;20139;-82
2023/01/15 05:19:07;;;;;;;12.60;0.98;;;6.70;76.40;;;;;;5030536;28;20335;-82
2023/01/15 05:21:40;;;;;;;10.32;1.23;;;6.70;76.30;;;;;;5042675;28;20053;-82
2023/01/15 05:24:14;;;;;;;11.68;0.98;;;6.70;76.20;;;;;;5030785;28;20056;-82
2023/01/15 05:26:42;;;;;;;11.10;1.33;;;6.70;76.40;;;;;;5012984;28;20085;-81
2023/01/15 05:29:11;;;;;;;10.53;1.13;;;6.70;76.30;;;;;;5023498;28;20058;-82
2023/01/15 05:31:40;;;;;;;9.70;1.15;;;6.70;76.30;;;;;;5024439;28;20261;-83
2023/01/15 05:34:07;;;;;;;12.75;1.20;;;6.60;76.40;;;;;;5019054;28;20168;-81
2023/01/15 05:36:36;;;;;;;9.55;1.20;;;6.60;76.40;;;;;;5018506;28;20054;-82
2023/01/15 05:39:03;;;;;;;9.02;1.15;;;6.70;76.20;;;;;;5015944;28;20057;-81
2023/01/15 05:41:49;;;;;;;9.20;1.10;;;6.60;76.30;;;;;;5028996;28;20041;-82
2023/01/15 05:44:18;;;;;;;9.07;1.45;;;6.60;76.30;;;;;;5016686;28;20261;-83
2023/01/15 05:46:46;;;;;;;9.48;0.88;;;6.60;76.10;;;;;;5026519;28;20664;-83
2023/01/15 05:49:16;;;;;;;11.48;1.33;;;6.60;75.80;;;;;;5036113;28;20057;-82
2023/01/15 05:51:44;;;;;;;9.25;1.52;;;6.60;75.80;;;;;;5029831;28;20049;-82
2023/01/15 05:54:14;;;;;;;12.80;1.60;;;6.60;75.70;;;;;;5030262;28;20097;-81
2023/01/15 05:56:42;;;;;;;11.43;1.30;;;6.60;75.60;;;;;;5012631;28;20304;-81
2023/01/15 05:59:09;;;;;;;9.40;1.30;;;6.60;75.40;;;;;;5029474;28;20116;-82
2023/01/15 06:01:36;;;;;;;9.40;1.45;;;6.50;75.30;;;;;;5028395;28;20056;-81
2023/01/15 06:04:05;;;;;;;7.68;0.80;;;6.50;75.40;;;;;;5027919;28;20493;-82
2023/01/15 06:06:33;;;;;;;6.40;0.40;;;6.50;75.40;;;;;;5027944;28;20049;-83
2023/01/15 06:09:02;;;;;;;8.13;1.10;;;6.50;75.40;;;;;;5013615;28;20264;-83
2023/01/15 06:11:30;;;;;;;7.72;0.98;;;6.50;75.20;;;;;;5030119;28;20501;-83
2023/01/15 06:13:57;;;;;;;7.47;0.90;;;6.50;74.90;;;;;;5026146;28;20045;-82
2023/01/15 06:16:24;;;;;;;11.30;0.95;;;6.40;75.00;;;;;;5029862;28;20081;-82
2023/01/15 06:18:51;;;;;;;8.40;0.93;;;6.40;75.10;;;;;;5013240;28;20057;-82
2023/01/15 06:21:19;;;;;;;8.65;1.15;;;6.50;74.50;;;;;;5033450;28;20280;-82
2023/01/15 06:23:47;;;;;;;10.45;1.58;;;6.50;74.40;;;;;;5031942;28;20523;-83
2023/01/15 06:26:17;;;;;;;12.57;1.88;;;6.50;74.30;;;;;;5033245;28;20490;-82
2023/01/15 06:28:45;;;;;;;7.38;0.85;;;6.50;74.30;;;;;;5044113;28;20049;-82
2023/01/15 06:31:14;;;;;;;9.73;0.97;;;6.50;74.30;;;;;;5026952;28;20557;-82
2023/01/15 06:33:41;;;;;;;6.70;1.10;;;6.40;74.30;;;;;;5031989;28;20329;-83
2023/01/15 06:36:11;;;;;;;9.20;1.67;;;6.40;74.40;;;;;;5028280;28;20133;-83
2023/01/15 06:38:38;;;;;;;10.85;1.00;;;6.40;74.50;;;;;;5016573;28;20132;-81
2023/01/15 06:47:19;;;;;;;10.82;1.15;;;6.50;74.20;;;;;;5035291;28;20141;-82
2023/01/15 06:49:28;;;;;;;9.68;1.45;;;6.40;73.80;;;;;;5032498;28;20054;-83
2023/01/15 06:51:55;;;;;;;6.97;1.33;;;6.40;73.80;;;;;;5032973;28;20578;-82
2023/01/15 06:54:22;;;;;;;10.18;1.05;;;6.40;74.10;;;;;;5032835;28;20156;-81
2023/01/15 06:56:49;;;;;;;9.10;1.13;;;6.40;74.40;;;;;;5028358;28;21096;-83
2023/01/15 06:59:18;;;;;;;9.38;1.23;;;6.30;74.70;;;;;;5031822;28;20312;-82
2023/01/15 07:01:45;;;;;;;7.78;1.17;;;6.30;75.00;;;;;;5033351;28;20157;-82
2023/01/15 07:04:14;;;;;;;10.27;1.33;;;6.30;75.20;;;;;;5032844;28;20049;-83
2023/01/15 07:06:41;;;;;;;8.85;0.88;;;6.30;75.30;;;;;;5030591;28;20076;-82
2023/01/15 07:09:09;;;;;;;6.90;0.67;;;6.30;75.10;;;;;;5030733;28;20133;-83
2023/01/15 07:11:48;;;;;;;10.20;1.25;;;6.30;75.20;;;;;;5028442;28;20321;-82
2023/01/15 07:14:16;;;;;;;7.30;1.00;;;6.30;75.10;;;;;;5032344;28;20048;-82
2023/01/15 07:16:44;;;;;;;8.27;1.20;;;6.20;74.90;;;;;;5045476;28;20054;-81
2023/01/15 07:19:11;;;;;;;7.30;0.52;;;6.30;74.70;;;;;;5047743;28;20045;-81
2023/01/15 07:21:39;;;;;;;6.10;0.90;;;6.20;74.80;;;;;;5020111;28;20128;-82
2023/01/15 07:24:06;;;;;;;7.75;0.95;;;6.20;74.90;;;;;;5032353;28;20257;-81
2023/01/15 07:26:34;;;;;;;9.45;1.02;;;6.10;74.80;;;;;;5050306;28;20144;-82
2023/01/15 07:29:01;;;;;;;8.65;0.90;;;6.20;74.10;;;;;;5045527;28;20511;-81
2023/01/15 07:31:28;;;;;;;6.65;0.77;;;6.10;73.70;;;;;;5017319;28;20141;-82
2023/01/15 07:33:57;;;;;;;5.60;0.63;;;6.10;73.40;;;;;;5026470;28;20049;-81
2023/01/15 07:36:24;;;;;;;7.22;0.82;;;6.10;72.90;;;;;;5047006;28;20860;-81
2023/01/15 07:38:52;;;;;;;6.82;0.73;;;6.10;73.20;;;;;;5020031;28;20166;-81
2023/01/15 07:49:55;;;;;;;8.40;0.88;;;6.00;72.20;;;;;;4989819;28;20368;-81
2023/01/15 07:52:23;;;;;;;8.63;0.77;;;6.00;72.10;;;;;;5015456;28;20050;-81
2023/01/15 07:54:50;;;;;;;10.20;1.10;;;5.90;72.10;;;;;;5040896;28;20054;-82
2023/01/15 07:57:20;;;;;;;6.70;1.10;;;5.90;71.90;;;;;;5031051;28;20058;-81
2023/01/15 07:59:47;;;;;;;7.97;0.50;;;6.00;72.00;;;;;;5026697;28;20962;-80
2023/01/15 08:02:14;;;;;;;11.27;0.98;;;5.90;72.10;;;;;;5044629;28;20245;-80
2023/01/15 08:04:41;;;;;;;6.82;1.05;;;5.90;72.40;;;;;;5047982;28;20132;-79
2023/01/15 08:07:11;;;;;;;6.55;0.90;;;5.80;72.30;;;;;;5029388;28;20046;-79
2023/01/15 08:09:39;;;;;;;8.15;0.75;;;5.80;72.30;;;;;;5046925;28;20076;-81
2023/01/15 08:17:36;;;;;;;9.48;1.00;;;5.80;71.50;;;;;;5031113;28;20084;-79
2023/01/15 08:20:10;;;;;;;6.75;0.75;;;5.80;71.10;;;;;;5031205;28;20049;-80
2023/01/15 08:22:39;;;;;;;7.20;0.85;;;5.80;71.40;;;;;;5037518;28;20585;-81
2023/01/15 08:25:09;;;;;;;9.30;0.90;;;5.80;70.50;;;;;;5024394;28;20053;-81
2023/01/15 08:27:36;;;;;;;9.48;1.02;;;5.80;70.30;;;;;;5039559;28;20974;-81
2023/01/15 08:30:05;;;;;;;10.95;1.10;;;5.80;70.30;;;;;;5031768;28;20060;-81
2023/01/15 08:32:32;;;;;;;6.32;0.77;;;5.80;69.90;;;;;;5025673;28;20056;-81
2023/01/15 08:34:59;;;;;;;6.80;0.77;;;5.80;70.30;;;;;;5023651;28;20128;-81
2023/01/15 08:37:26;;;;;;;9.40;0.90;;;5.70;70.40;;;;;;5048796;28;20060;-80
2023/01/15 08:39:56;;;;;;;8.60;0.73;;;5.80;69.80;;;;;;5030323;28;20669;-81
2023/01/15 08:42:23;;;;;;;4.38;0.65;;;5.80;70.00;;;;;;5011400;28;20060;-82
2023/01/15 08:44:50;;;;;;;10.55;1.00;;;5.80;70.10;;;;;;5042298;28;20519;-81
2023/01/15 08:47:17;;;;;;;9.02;0.60;;;5.80;70.40;;;;;;5028788;28;20431;-82
2023/01/15 08:49:46;;;;;;;6.57;0.80;;;5.90;70.00;;;;;;5027943;28;20111;-82
2023/01/15 08:52:13;;;;;;;14.68;1.13;;;5.80;70.20;;;;;;5030669;28;20249;-81
2023/01/15 08:54:40;;;;;;;9.38;1.33;;;5.90;70.50;;;;;;5049032;28;20062;-84
2023/01/15 08:57:10;;;;;;;10.63;1.33;;;5.90;70.30;;;;;;5033796;28;20574;-83
2023/01/15 08:59:37;;;;;;;7.60;0.82;;;6.00;69.90;;;;;;5029363;28;20125;-83
2023/01/15 09:02:04;;;;;;;8.43;1.37;;;6.00;69.60;;;;;;5030247;28;20055;-84
2023/01/15 09:04:32;;;;;;;7.93;0.90;;;6.10;70.60;;;;;;5029971;28;20736;-83
2023/01/15 09:06:59;;;;;;;7.40;1.13;;;6.10;71.20;;;;;;5044901;28;20049;-82
2023/01/15 09:09:26;;;;;;;5.38;0.47;;;6.10;72.50;;;;;;5040700;28;20101;-81
2023/01/15 09:11:53;;;;;;;5.47;0.75;;;6.00;73.90;;;;;;5042559;28;20069;-82
2023/01/15 09:14:21;;;;;;;5.50;0.70;;;5.90;74.50;;;;;;5045724;28;20143;-82
2023/01/15 09:16:48;;;;;;;3.67;0.50;;;5.80;75.00;;;;;;5029303;28;20400;-82
2023/01/15 09:19:16;;;;;;;3.47;0.45;;;5.70;75.10;;;;;;5025550;28;20053;-83
2023/01/15 09:22:33;;;;;;;5.47;0.47;;;5.60;75.80;;;;;;5029773;28;20160;-83
2023/01/15 09:25:01;;;;;;;5.15;0.40;;;5.50;76.40;;;;;;5030109;28;20053;-83
2023/01/15 09:27:28;;;;;;;4.73;0.33;;;5.30;77.00;;;;;;5047145;28;20057;-82
2023/01/15 09:29:57;;;;;;;6.57;0.55;;;5.30;77.60;;;;;;5044269;28;20253;-82
2023/01/15 09:32:24;;;;;;;6.38;0.60;;;5.30;77.90;;;;;;5025453;28;20517;-82
2023/01/15 09:34:51;;;;;;;6.53;0.80;;;5.20;78.40;;;;;;5045740;28;20125;-82
2023/01/15 09:37:18;;;;;;;6.85;0.95;;;5.10;78.80;;;;;;5028210;28;20081;-81
2023/01/15 09:39:45;;;;;;;5.47;0.50;;;5.10;79.10;;;;;;5022085;28;20057;-82
2023/01/15 09:42:33;;;;;;;4.53;0.52;;;5.00;79.70;;;;;;5043150;28;20368;-81
2023/01/15 09:45:16;;;;;;;5.22;0.60;;;5.00;80.10;;;;;;5022953;28;20056;-81
2023/01/15 09:48:02;;;;;;;8.60;1.23;;;5.00;80.30;;;;;;5027342;28;20176;-82
2023/01/15 09:50:38;;;;;;;8.45;1.00;;;5.10;80.40;;;;;;5041893;28;20140;-83
2023/01/15 09:53:22;;;;;;;6.93;0.80;;;5.10;80.00;;;;;;5026489;28;20538;-84
2023/01/15 09:55:50;;;;;;;8.45;0.93;;;5.10;80.20;;;;;;5025328;28;20359;-83
2023/01/15 09:58:20;;;;;;;8.77;1.33;;;5.20;79.90;;;;;;5039724;28;20566;-84
2023/01/15 10:00:51;;;;;;;9.35;0.85;;;5.10;79.80;;;;;;5024894;28;20052;-84
2023/01/15 10:03:28;;;;;;;7.95;0.73;;;5.10;79.90;;;;;;5029244;28;20248;-82
2023/01/15 10:06:01;;;;;;;7.83;0.73;;;5.20;80.00;;;;;;5027974;28;20115;-82
2023/01/15 10:08:33;;;;;;;6.78;0.60;;;5.30;80.20;;;;;;5044617;28;20390;-83
2023/01/15 10:11:05;;;;;;;8.73;0.80;;;5.30;80.70;;;;;;5044331;28;20561;-83
2023/01/15 10:13:39;;;;;;;8.27;0.70;;;5.30;80.80;;;;;;5040190;28;20045;-82
2023/01/15 10:16:09;;;;;;;7.75;0.82;;;5.40;80.90;;;;;;5028060;28;20157;-82
2023/01/15 10:18:37;;;;;;;8.80;1.40;;;5.30;81.10;;;;;;5028191;28;20113;-83
2023/01/15 10:21:18;;;;;;;6.90;0.65;;;5.40;81.20;;;;;;5028414;28;20814;-82
2023/01/15 10:24:01;;;;;;;8.77;1.27;;;5.50;80.80;;;;;;5046857;28;20136;-82
2023/01/15 10:26:35;;;;;;;11.52;0.88;;;5.50;80.50;;;;;;5009458;28;20072;-82
2023/01/15 10:29:11;;;;;;;7.15;1.02;;;5.50;80.20;;;;;;5028288;28;20113;-84
2023/01/15 10:31:49;;;;;;;9.27;1.33;;;5.50;80.40;;;;;;5041546;28;20204;-83
2023/01/15 10:35:02;;;;;;;4.43;0.55;;;5.50;80.70;;;;;;5028815;28;20261;-84
2023/01/15 10:37:40;;;;;;;8.13;0.90;;;5.60;80.80;;;;;;5025465;28;20046;-84
2023/01/15 10:40:34;;;;;;;6.80;0.63;;;5.50;81.40;;;;;;5021264;28;20072;-83
2023/01/15 10:43:10;;;;;;;9.93;1.08;;;5.50;81.50;;;;;;5034433;28;20116;-83
2023/01/15 10:45:43;;;;;;;9.70;1.20;;;5.30;82.00;;;;;;5024979;28;20061;-83
2023/01/15 10:48:18;;;;;;;9.45;1.05;;;5.30;82.60;;;;;;5025250;28;20296;-84
2023/01/15 10:50:45;;;;;;;8.55;1.00;;;5.40;82.90;;;;;;5036359;28;20100;-84
2023/01/15 10:53:19;;;;;;;11.02;1.55;;;5.40;83.00;;;;;;5009836;28;20470;-84
2023/01/15 10:55:51;;;;;;;6.97;0.70;;;5.50;83.20;;;;;;5037519;28;20135;-82
2023/01/15 10:58:35;;;;;;;10.33;0.90;;;5.50;82.90;;;;;;5008389;28;20380;-83
2023/01/15 11:01:06;;;;;;;7.50;1.05;;;5.50;83.20;;;;;;5040599;28;20881;-83
2023/01/15 11:03:37;;;;;;;8.38;1.17;;;5.60;82.90;;;;;;5027656;28;20433;-81
2023/01/15 11:06:07;;;;;;;11.55;1.40;;;5.60;82.40;;;;;;5023682;28;20498;-85
2023/01/15 11:08:35;;;;;;;9.27;0.95;;;5.70;82.40;;;;;;5029683;28;20057;-84
2023/01/15 11:11:15;;;;;;;9.63;1.07;;;5.80;82.30;;;;;;5009050;28;20053;-84
2023/01/15 11:19:38;;;;;;;10.73;1.27;;;6.00;81.50;;;;;;5038604;28;20514;-83
2023/01/15 11:22:11;;;;;;;7.13;1.00;;;6.10;81.30;;;;;;5029398;28;20123;-83
2023/01/15 11:24:45;;;;;;;12.43;1.30;;;6.20;80.70;;;;;;5038049;28;20059;-84
2023/01/15 11:27:16;;;;;;;12.93;1.40;;;6.20;80.40;;;;;;5047622;28;20257;-83
2023/01/15 11:29:45;;;;;;;10.05;1.00;;;6.30;79.50;;;;;;5023536;28;20049;-83
2023/01/15 11:32:24;;;;;;;9.27;1.20;;;6.30;79.30;;;;;;5029823;28;20566;-82
2023/01/15 11:34:57;;;;;;;10.18;1.13;;;6.40;79.00;;;;;;5028227;28;20531;-84
2023/01/15 11:37:24;;;;;;;4.47;0.57;;;6.50;78.70;;;;;;5027908;28;20050;-84
2023/01/15 11:39:55;;;;;;;9.57;1.08;;;6.50;78.30;;;;;;5040596;28;20281;-83
2023/01/15 11:50:55;;;;;;;9.23;1.40;;;6.70;78.50;;;;;;5035672;28;20054;-84
2023/01/15 11:53:25;;;;;;;9.68;1.10;;;6.70;78.80;;;;;;5030113;28;20371;-83
2023/01/15 11:58:57;;;;;;;8.98;1.10;;;6.70;78.70;;;;;;5142519;27;20680;-82
2023/01/15 12:01:27;;;;;;;8.87;1.27;;;6.80;78.40;;;;;;5143052;27;20602;-83
2023/01/15 12:03:56;;;;;;;8.38;0.93;;;6.80;77.90;;;;;;5145678;27;20269;-83
2023/01/15 12:06:24;;;;;;;6.28;0.70;;;6.90;77.90;;;;;;5173317;27;20321;-82
2023/01/15 12:08:54;;;;;;;9.23;1.63;;;6.80;78.40;;;;;;5126053;27;20055;-83
2023/01/15 12:11:31;;;;;;;9.75;0.70;;;6.80;78.90;;;;;;5139549;27;20044;-83
2023/01/15 12:14:23;;;;;;;8.70;1.20;;;6.80;79.00;;;;;;5130110;27;20054;-82
2023/01/15 12:16:57;;;;;;;4.53;0.55;;;6.80;79.20;;;;;;5143574;27;20389;-83
2023/01/15 12:19:33;;;;;;;10.18;1.23;;;6.80;79.20;;;;;;5141610;27;20051;-83
2023/01/15 12:22:23;;;;;;;9.40;1.40;;;6.90;78.60;;;;;;5138261;27;20690;-82
2023/01/15 12:25:20;;;;;;;8.88;1.67;;;7.00;78.10;;;;;;5144394;27;20130;-82
2023/01/15 12:27:59;;;;;;;10.13;1.23;;;7.00;77.70;;;;;;5135863;27;20128;-82
2023/01/15 12:30:38;;;;;;;7.68;1.02;;;7.00;78.00;;;;;;5173622;27;20273;-83
2023/01/15 12:33:17;;;;;;;6.32;0.68;;;7.00;78.10;;;;;;5142723;27;20134;-83
2023/01/15 12:35:49;;;;;;;9.10;1.08;;;7.00;77.80;;;;;;5152305;27;20138;-83
2023/01/15 12:38:21;;;;;;;9.90;1.30;;;7.00;78.30;;;;;;5128967;27;20078;-84
2023/01/15 12:40:52;;;;;;;9.43;1.23;;;7.00;78.50;;;;;;5147241;27;20145;-83
2023/01/15 12:46:15;;;;;;;10.55;1.33;;;7.00;77.60;;;;;;5147613;27;20055;-83
2023/01/15 12:48:50;;;;;;;8.00;1.15;;;7.00;77.20;;;;;;5126140;27;20039;-83
2023/01/15 12:51:25;;;;;;;10.35;1.50;;;7.10;76.70;;;;;;5137251;27;20044;-81
2023/01/15 12:53:55;;;;;;;11.47;1.40;;;7.20;76.50;;;;;;5146091;27;20134;-83
2023/01/15 12:56:28;;;;;;;8.00;1.33;;;7.20;75.70;;;;;;5142056;27;21062;-80
2023/01/15 12:59:00;;;;;;;8.82;1.13;;;7.20;75.80;;;;;;5154598;27;20647;-82
2023/01/15 13:01:36;;;;;;;7.13;0.98;;;7.20;76.00;;;;;;5146255;27;20055;-81
2023/01/15 13:04:14;;;;;;;7.38;0.85;;;7.30;75.50;;;;;;5131005;27;20096;-83
2023/01/15 13:06:47;;;;;;;9.60;1.10;;;7.30;75.40;;;;;;5153612;27;20066;-83
2023/01/15 13:09:28;;;;;;;7.22;1.00;;;7.40;75.50;;;;;;5112229;27;20636;-81
2023/01/15 13:11:55;;;;;;;7.22;1.20;;;7.40;75.50;;;;;;5134180;27;20058;-81
2023/01/15 13:14:23;;;;;;;7.60;1.08;;;7.20;75.80;;;;;;5123343;27;20093;-82
2023/01/15 13:16:58;;;;;;;6.78;1.00;;;7.20;76.00;;;;;;5083947;27;20744;-82
2023/01/15 13:19:37;;;;;;;8.27;0.80;;;7.20;76.60;;;;;;5119260;27;20094;-82
2023/01/15 13:22:10;;;;;;;9.00;1.00;;;7.10;76.90;;;;;;5097880;27;20269;-82
2023/01/15 13:24:59;;;;;;;6.47;0.88;;;7.00;76.90;;;;;;5088341;28;20049;-80
2023/01/15 13:27:39;;;;;;;8.48;0.88;;;7.00;76.90;;;;;;5102153;28;20597;-80
2023/01/15 13:30:21;;;;;;;9.18;1.52;;;7.00;76.80;;;;;;5101121;27;20135;-80
2023/01/15 13:32:51;;;;;;;10.27;1.40;;;7.00;76.90;;;;;;5112567;27;20759;-79
2023/01/15 13:35:27;;;;;;;6.78;0.65;;;7.00;76.90;;;;;;5100970;27;20255;-79
2023/01/15 13:37:56;;;;;;;8.70;1.20;;;7.10;76.60;;;;;;5121794;27;20420;-79
2023/01/15 13:40:27;;;;;;;9.18;1.13;;;7.10;76.90;;;;;;5105135;28;20056;-81
2023/01/15 13:42:56;;;;;;;8.80;1.13;;;7.00;77.00;;;;;;5107639;28;20062;-80
2023/01/15 13:45:33;;;;;;;10.50;1.40;;;7.00;77.30;;;;;;5101779;28;20132;-80
2023/01/15 13:48:07;;;;;;;10.23;1.23;;;7.00;77.70;;;;;;5097446;28;20281;-80
2023/01/15 13:50:37;;;;;;;8.05;1.20;;;7.00;77.90;;;;;;5101124;28;20044;-80
2023/01/15 13:53:08;;;;;;;8.27;1.20;;;7.10;77.20;;;;;;5097970;28;20135;-80
2023/01/15 13:55:37;;;;;;;11.27;1.13;;;7.20;76.30;;;;;;5099577;28;20579;-81
2023/01/15 13:58:18;;;;;;;11.43;1.30;;;7.20;76.20;;;;;;5104634;28;20139;-82
2023/01/15 14:00:46;;;;;;;9.27;1.55;;;7.20;75.20;;;;;;5101833;28;20761;-83
2023/01/15 14:03:28;;;;;;;6.82;0.80;;;7.20;74.50;;;;;;5096867;28;20052;-81
2023/01/15 14:05:56;;;;;;;7.05;1.08;;;7.40;74.30;;;;;;5099490;28;20045;-82
2023/01/15 14:08:27;;;;;;;5.68;1.00;;;7.40;75.70;;;;;;5108871;28;20052;-83